createdAt,value
2023-02-13T00:03:44.884Z,11
2023-02-13T00:09:37.159Z,10
2023-02-13T00:14:43.882Z,11
2023-02-13T00:19:43.891Z,9
2023-02-13T00:25:37.086Z,10
2023-02-13T00:30:37.174Z,10
2023-02-13T00:35:37.136Z,10
2023-02-13T00:40:43.892Z,10
2023-02-13T00:45:44.259Z,9
2023-02-13T00:51:37.171Z,10
2023-02-13T00:56:43.949Z,10
2023-02-13T01:01:44.657Z,10
2023-02-13T01:07:37.153Z,9
2023-02-13T01:12:44.647Z,9
2023-02-13T01:18:37.130Z,10
2023-02-13T01:23:44.002Z,10
2023-02-13T01:29:37.143Z,9
2023-02-13T01:34:37.184Z,10
2023-02-13T01:39:44.168Z,10
2023-02-13T01:44:44.498Z,10
2023-02-13T01:50:37.099Z,10
2023-02-13T01:55:43.874Z,9
2023-02-13T02:00:44.285Z,10
2023-02-13T02:06:37.106Z,10
2023-02-13T02:11:37.177Z,10
2023-02-13T02:16:44.311Z,9
2023-02-13T02:22:37.107Z,11
2023-02-13T02:27:37.099Z,10
2023-02-13T02:32:37.162Z,11
2023-02-13T02:37:37.248Z,11
2023-02-13T02:44:37.121Z,10
2023-02-13T02:49:50.794Z,10
2023-02-13T02:55:37.153Z,10
2023-02-13T03:00:43.996Z,10
2023-02-13T03:05:44.138Z,10
2023-02-13T03:10:44.470Z,10
2023-02-13T03:16:37.207Z,10
2023-02-13T03:21:43.924Z,10
2023-02-13T03:27:37.125Z,10
2023-02-13T03:32:37.184Z,10
2023-02-13T03:37:43.919Z,10
2023-02-13T03:42:44.307Z,10
2023-02-13T03:47:44.710Z,10
2023-02-13T03:53:37.115Z,10
2023-02-13T03:58:37.135Z,10
2023-02-13T04:03:43.905Z,10
2023-02-13T04:09:37.124Z,11
2023-02-13T04:14:37.129Z,11
2023-02-13T04:19:37.180Z,10
2023-02-13T04:24:43.877Z,10
2023-02-13T04:29:44.423Z,10
2023-02-13T04:35:37.164Z,12
2023-02-13T04:40:43.872Z,10
2023-02-13T04:45:43.983Z,10
2023-02-13T04:50:43.987Z,10
2023-02-13T04:56:37.153Z,11
2023-02-13T05:01:43.979Z,11
2023-02-13T05:06:44.705Z,11
2023-02-13T05:12:37.142Z,10
2023-02-13T05:17:37.148Z,10
2023-02-13T05:22:43.950Z,10
2023-02-13T05:27:44.226Z,10
2023-02-13T05:33:37.089Z,10
2023-02-13T05:38:37.223Z,10
2023-02-13T05:43:44.052Z,10
2023-02-13T05:48:44.666Z,11
2023-02-13T05:53:44.818Z,10
2023-02-13T05:59:37.156Z,11
2023-02-13T06:04:44.431Z,11
2023-02-13T06:10:37.129Z,11
2023-02-13T06:15:37.145Z,11
2023-02-13T06:20:37.173Z,12
2023-02-13T06:25:44.430Z,12
2023-02-13T06:31:37.237Z,12
2023-02-13T06:36:44.422Z,12
2023-02-13T06:41:44.454Z,13
2023-02-13T06:47:37.126Z,13
2023-02-13T06:52:44.320Z,13
2023-02-13T06:58:37.165Z,13
2023-02-13T07:03:37.148Z,14
2023-02-13T07:08:43.920Z,12
2023-02-13T07:14:37.174Z,13
2023-02-13T07:19:37.135Z,13
2023-02-13T07:24:43.883Z,13
2023-02-13T07:29:44.165Z,15
2023-02-13T07:34:59.562Z,14
2023-02-13T07:40:37.151Z,14
2023-02-13T07:45:43.913Z,11
2023-02-13T07:51:37.126Z,11
2023-02-13T07:56:43.854Z,11
2023-02-13T08:01:44.021Z,10
2023-02-13T08:07:37.135Z,9
2023-02-13T08:12:43.929Z,10
2023-02-13T08:18:37.169Z,8
2023-02-13T08:23:37.234Z,7
2023-02-13T08:28:37.210Z,8
2023-02-13T08:33:44.166Z,8
2023-02-13T08:38:44.608Z,9
2023-02-13T08:44:37.089Z,8
2023-02-13T08:49:44.284Z,9
2023-02-13T08:55:37.137Z,8
2023-02-13T09:00:42.796Z,8
2023-02-13T09:06:37.228Z,8
2023-02-13T09:11:43.947Z,8
2023-02-13T09:16:44.027Z,8
2023-02-13T09:22:37.153Z,8
2023-02-13T09:27:43.952Z,8
2023-02-13T09:32:43.941Z,8
2023-02-13T09:37:44.583Z,8
2023-02-13T09:43:37.092Z,8
2023-02-13T09:48:37.104Z,8
2023-02-13T09:53:44.021Z,8
2023-02-13T09:58:44.109Z,8
2023-02-13T10:04:37.125Z,8
2023-02-13T10:09:37.199Z,9
2023-02-13T10:14:43.937Z,8
2023-02-13T10:20:37.160Z,8
2023-02-13T10:25:44.246Z,8
2023-02-13T10:30:44.556Z,7
2023-02-13T10:36:37.105Z,8
2023-02-13T10:41:37.196Z,7
2023-02-13T10:46:37.182Z,7
2023-02-13T10:51:44.904Z,7
2023-02-13T10:57:37.191Z,7
2023-02-13T11:02:44.706Z,6
2023-02-13T11:08:37.152Z,6
2023-02-13T11:13:37.213Z,7
2023-02-13T11:18:44.335Z,7
2023-02-13T11:23:44.850Z,6
2023-02-13T11:29:37.200Z,7
2023-02-13T11:34:44.465Z,6
2023-02-13T11:40:37.158Z,6
2023-02-13T11:45:37.196Z,6
2023-02-13T11:50:37.175Z,6
2023-02-13T11:55:38.494Z,5
2023-02-13T12:00:44.004Z,6
2023-02-13T12:05:44.417Z,5
2023-02-13T12:11:37.133Z,5
2023-02-13T12:16:37.257Z,6
2023-02-13T12:21:37.185Z,5
2023-02-13T12:26:43.952Z,5
2023-02-13T12:31:44.337Z,5
2023-02-13T12:36:44.672Z,5
2023-02-13T12:42:37.189Z,5
2023-02-13T12:47:44.631Z,5
2023-02-13T12:52:44.723Z,5
2023-02-13T12:58:37.172Z,5
2023-02-13T13:03:43.983Z,5
2023-02-13T13:09:37.183Z,6
2023-02-13T13:15:37.166Z,5
2023-02-13T13:20:37.808Z,4
2023-02-13T13:25:43.972Z,4
2023-02-13T13:30:44.404Z,5
2023-02-13T13:36:37.197Z,4
2023-02-13T13:41:44.010Z,4
2023-02-13T13:47:37.181Z,4
2023-02-13T13:52:44.666Z,5
2023-02-13T13:58:37.180Z,4
2023-02-13T14:03:44.577Z,4
2023-02-13T14:09:37.206Z,4
2023-02-13T14:14:43.947Z,4
2023-02-13T14:19:44.484Z,3
2023-02-13T14:25:37.221Z,4
2023-02-13T14:30:44.088Z,3
2023-02-13T14:36:37.181Z,4
2023-02-13T14:41:44.291Z,3
2023-02-13T14:47:37.124Z,3
2023-02-13T14:52:37.181Z,3
2023-02-13T14:57:43.993Z,3
2023-02-13T15:02:44.064Z,3
2023-02-13T15:08:37.146Z,4
2023-02-13T15:13:37.220Z,4
2023-02-13T15:18:37.342Z,4
2023-02-13T15:23:43.954Z,4
2023-02-13T15:28:44.773Z,3
2023-02-13T15:34:37.199Z,4
2023-02-13T15:39:44.050Z,3
2023-02-13T15:45:37.206Z,2
2023-02-13T15:50:37.219Z,3
2023-02-13T15:55:43.974Z,8
2023-02-13T16:01:37.210Z,8
2023-02-13T16:06:44.369Z,3
2023-02-13T16:12:37.204Z,3
2023-02-13T16:17:43.944Z,3
2023-02-13T16:22:44.365Z,3
2023-02-13T16:28:37.134Z,5
2023-02-13T16:33:37.162Z,3
2023-02-13T16:38:37.182Z,3
2023-02-13T16:43:44.157Z,3
2023-02-13T16:49:37.212Z,4
2023-02-13T16:54:44.344Z,5
2023-02-13T16:59:44.497Z,4
2023-02-13T17:05:37.177Z,4
2023-02-13T17:10:43.989Z,4
2023-02-13T17:16:37.190Z,4
2023-02-13T17:21:37.142Z,3
2023-02-13T17:26:37.163Z,4
2023-02-13T17:31:37.293Z,4
2023-02-13T17:36:37.193Z,3
2023-02-13T17:41:37.244Z,3
2023-02-13T17:46:37.214Z,4
2023-02-13T17:51:45.960Z,4
2023-02-13T17:56:44.465Z,4
2023-02-13T18:02:37.205Z,4
2023-02-13T18:07:43.965Z,5
2023-02-13T18:12:44.028Z,8
2023-02-13T18:17:44.539Z,11
2023-02-13T18:23:37.198Z,7
2023-02-13T18:28:44.016Z,6
2023-02-13T18:34:37.237Z,6
2023-02-13T18:39:44.418Z,5
2023-02-13T18:45:37.240Z,5
2023-02-13T18:50:37.235Z,5
2023-02-13T18:55:43.905Z,5
2023-02-13T19:00:43.992Z,6
2023-02-13T19:05:44.501Z,5
2023-02-13T19:11:37.244Z,6
2023-02-13T19:16:44.726Z,6
2023-02-13T19:22:37.216Z,5
2023-02-13T19:27:37.200Z,6
2023-02-13T19:32:37.227Z,5
2023-02-13T19:37:44.705Z,4
2023-02-13T19:42:44.788Z,9
2023-02-13T19:47:44.856Z,14
2023-02-13T19:52:49.569Z,6
2023-02-13T19:58:37.221Z,5
2023-02-13T20:03:44.019Z,6
2023-02-13T20:08:43.992Z,7
2023-02-13T20:14:37.251Z,7
2023-02-13T20:19:44.026Z,7
2023-02-13T20:24:44.501Z,8
2023-02-13T20:30:37.256Z,6
2023-02-13T20:35:37.229Z,6
2023-02-13T20:40:37.212Z,5
2023-02-13T20:45:37.311Z,5
2023-02-13T20:50:44.495Z,6
2023-02-13T20:56:37.200Z,6
2023-02-13T21:01:37.227Z,8
2023-02-13T21:06:44.067Z,7
2023-02-13T21:11:44.076Z,7
2023-02-13T21:17:37.148Z,6
2023-02-13T21:22:37.230Z,7
2023-02-13T21:27:37.208Z,6
2023-02-13T21:32:44.229Z,8
2023-02-13T21:37:44.463Z,9
2023-02-13T21:43:37.151Z,7
2023-02-13T21:48:37.217Z,6
2023-02-13T21:53:44.827Z,6
2023-02-13T21:59:37.167Z,6
2023-02-13T22:04:37.185Z,6
2023-02-13T22:09:37.258Z,6
2023-02-13T22:14:44.398Z,6
2023-02-13T22:20:37.220Z,7
2023-02-13T22:25:45.508Z,7
2023-02-13T22:31:37.360Z,7
2023-02-13T22:36:45.940Z,7
2023-02-13T22:42:37.198Z,7
2023-02-13T22:47:37.202Z,6
2023-02-13T22:52:44.666Z,6
2023-02-13T22:58:37.259Z,7
2023-02-13T23:03:44.560Z,7
2023-02-13T23:09:37.293Z,6
2023-02-13T23:14:44.603Z,7
2023-02-13T23:20:37.200Z,5
2023-02-13T23:25:44.023Z,7
2023-02-13T23:31:37.319Z,5
2023-02-13T23:36:43.915Z,5
2023-02-13T23:41:43.966Z,5
2023-02-13T23:46:44.662Z,5
2023-02-13T23:52:37.291Z,5
2023-02-13T23:57:43.990Z,5
